Time;durP1;ratioP1;P1;durP2;ratioP2;P2;SDS_P1;SDS_P2;PMS_P1;PMS_P2;Temp;Humidity;BMP_temperature;BMP_pressure;BME280_temperature;BME280_humidity;BME280_pressure;Samples;Min_cycle;Max_cycle;Signal;HPM_P1;HPM_P2
2022/09/25 07:34:50;;;;;;;4.95;1.30;;;16.00;96.30;;;;;;5561848;22;20056;-69
2022/09/25 07:37:19;;;;;;;3.03;1.50;;;15.90;96.70;;;;;;5057200;22;20081;-74
2022/09/25 07:39:44;;;;;;;3.72;1.48;;;15.90;96.70;;;;;;5052213;28;20055;-73
2022/09/25 07:42:10;;;;;;;2.72;1.38;;;16.00;96.70;;;;;;5052356;28;20534;-76
2022/09/25 07:44:36;;;;;;;6.28;1.50;;;16.00;96.60;;;;;;5052451;28;20029;-76
2022/09/25 07:47:02;;;;;;;5.63;1.40;;;16.00;96.60;;;;;;5051986;28;20025;-75
2022/09/25 07:49:31;;;;;;;4.30;1.40;;;16.00;96.50;;;;;;5002857;28;20065;-75
2022/09/25 07:51:58;;;;;;;3.28;1.30;;;16.00;96.50;;;;;;5011781;28;20108;-74
2022/09/25 07:54:24;;;;;;;3.75;1.30;;;16.10;96.40;;;;;;5012424;28;20071;-74
2022/09/25 07:56:50;;;;;;;3.70;1.23;;;16.00;96.40;;;;;;5012270;28;20133;-75
2022/09/25 07:59:16;;;;;;;7.63;1.92;;;16.10;96.40;;;;;;5012282;28;20113;-75
2022/09/25 08:01:41;;;;;;;5.93;1.60;;;16.10;96.20;;;;;;5010590;28;20479;-75
2022/09/25 08:04:07;;;;;;;4.30;1.17;;;16.10;96.20;;;;;;5012416;28;20053;-74
2022/09/25 08:06:34;;;;;;;2.95;1.50;;;16.20;96.20;;;;;;5012646;28;20034;-75
2022/09/25 08:09:00;;;;;;;3.97;1.48;;;16.10;96.30;;;;;;5002151;28;20023;-72
2022/09/25 08:11:27;;;;;;;4.03;1.92;;;16.20;96.20;;;;;;4974654;28;20033;-76
2022/09/25 08:13:53;;;;;;;5.00;1.77;;;16.20;96.20;;;;;;4991985;28;20113;-73
2022/09/25 08:16:21;;;;;;;14.27;5.00;;;16.20;96.20;;;;;;4992497;28;20030;-74
2022/09/25 08:18:48;;;;;;;9.98;2.72;;;16.20;96.20;;;;;;4992473;28;20027;-75
2022/09/25 08:21:19;;;;;;;5.90;2.08;;;16.20;96.30;;;;;;5008458;28;20026;-75
2022/09/25 08:23:49;;;;;;;3.75;1.70;;;16.20;96.30;;;;;;5012445;28;20048;-74
2022/09/25 08:26:16;;;;;;;1.88;1.50;;;16.20;96.30;;;;;;5012471;28;20073;-76
2022/09/25 08:28:43;;;;;;;4.45;2.13;;;16.30;96.30;;;;;;5012037;28;20026;-73
2022/09/25 08:31:09;;;;;;;3.35;1.67;;;16.30;96.30;;;;;;5012398;28;20022;-74
2022/09/25 08:33:36;;;;;;;5.65;2.08;;;16.30;96.20;;;;;;5011755;28;20057;-76
2022/09/25 08:36:04;;;;;;;3.45;1.75;;;16.30;96.30;;;;;;5010457;28;20046;-74
2022/09/25 08:38:34;;;;;;;5.18;2.13;;;16.30;96.30;;;;;;5011135;28;20034;-76
2022/09/25 08:41:14;;;;;;;4.25;1.83;;;16.40;96.20;;;;;;5011514;28;20038;-75
2022/09/25 08:43:47;;;;;;;3.22;1.67;;;16.40;96.00;;;;;;5015655;28;20423;-75
2022/09/25 08:49:10;;;;;;;6.63;2.30;;;16.40;95.50;;;;;;5015927;28;20033;-75
2022/09/25 08:51:44;;;;;;;4.45;2.10;;;16.50;95.30;;;;;;5016233;28;20076;-74
2022/09/25 08:54:25;;;;;;;3.45;2.40;;;16.50;95.30;;;;;;5016356;28;20033;-74
2022/09/25 08:57:15;;;;;;;4.25;2.08;;;16.50;95.20;;;;;;5016311;28;20376;-75
2022/09/25 08:59:46;;;;;;;5.50;2.30;;;16.60;95.20;;;;;;5010755;28;20518;-75
2022/09/25 09:02:21;;;;;;;4.85;2.08;;;16.60;95.20;;;;;;5015890;28;20025;-74
2022/09/25 09:04:51;;;;;;;2.97;1.85;;;16.60;95.10;;;;;;5016136;28;20022;-74
2022/09/25 09:07:39;;;;;;;3.55;1.75;;;16.60;95.20;;;;;;5016167;28;20040;-73
2022/09/25 09:10:26;;;;;;;4.15;1.65;;;16.70;95.30;;;;;;5015920;28;20049;-74
2022/09/25 09:13:33;;;;;;;6.75;1.50;;;16.70;95.40;;;;;;5015960;28;20111;-76
2022/09/25 09:16:20;;;;;;;2.17;1.38;;;16.70;95.40;;;;;;5015623;28;20038;-75
2022/09/25 09:18:46;;;;;;;3.08;1.42;;;16.70;95.30;;;;;;5016040;28;20110;-76
2022/09/25 09:21:30;;;;;;;2.75;1.40;;;16.70;95.30;;;;;;5016157;28;20038;-75
2022/09/25 09:24:10;;;;;;;2.03;1.50;;;16.80;95.40;;;;;;5013148;28;20447;-75
2022/09/25 09:27:12;;;;;;;2.17;1.20;;;16.80;95.40;;;;;;5012992;28;20091;-76
2022/09/25 09:30:01;;;;;;;3.05;1.10;;;16.80;95.40;;;;;;5015350;28;20018;-75
2022/09/25 09:32:35;;;;;;;0.90;0.85;;;16.80;95.50;;;;;;5015205;28;20475;-75
2022/09/25 09:35:22;;;;;;;2.92;1.00;;;16.70;95.40;;;;;;5015401;28;20030;-75
2022/09/25 09:38:13;;;;;;;0.80;0.60;;;16.70;95.40;;;;;;5015551;28;20042;-76
2022/09/25 09:40:58;;;;;;;1.63;0.93;;;16.80;95.30;;;;;;5015613;28;20447;-75
2022/09/25 09:43:42;;;;;;;2.97;0.80;;;16.80;95.30;;;;;;5015430;28;20495;-75
2022/09/25 09:46:20;;;;;;;1.63;0.88;;;16.80;95.30;;;;;;5015234;28;20526;-74
2022/09/25 09:49:34;;;;;;;1.52;0.95;;;16.80;95.30;;;;;;5013217;28;20049;-75
2022/09/25 09:52:13;;;;;;;0.93;0.75;;;16.70;95.20;;;;;;5012604;28;20510;-76
2022/09/25 09:54:57;;;;;;;1.20;0.93;;;16.80;95.10;;;;;;5013325;28;20109;-75
2022/09/25 09:57:40;;;;;;;2.08;1.00;;;16.80;95.10;;;;;;5014884;28;20072;-75
2022/09/25 10:00:13;;;;;;;2.92;0.70;;;16.80;95.20;;;;;;5014370;28;20061;-76
2022/09/25 10:02:59;;;;;;;1.52;0.75;;;16.90;95.00;;;;;;5014249;28;20101;-73
2022/09/25 10:05:38;;;;;;;1.42;0.57;;;16.90;94.80;;;;;;5011938;28;20026;-72
2022/09/25 10:08:03;;;;;;;1.48;0.60;;;16.90;94.80;;;;;;5014123;28;20096;-77
2022/09/25 10:10:36;;;;;;;1.90;0.50;;;16.80;94.80;;;;;;5014251;28;20468;-76
2022/09/25 10:13:05;;;;;;;2.03;0.82;;;16.80;94.90;;;;;;5014508;28;20038;-74
2022/09/25 10:15:41;;;;;;;3.97;0.80;;;16.80;94.90;;;;;;5014382;28;20041;-75
2022/09/25 10:18:07;;;;;;;1.67;0.73;;;16.80;94.90;;;;;;5013971;28;20026;-76
2022/09/25 10:20:40;;;;;;;1.45;0.80;;;16.80;94.80;;;;;;5014077;28;20038;-75
2022/09/25 10:23:31;;;;;;;2.42;0.85;;;16.80;94.80;;;;;;5014358;28;20026;-76
2022/09/25 10:25:57;;;;;;;4.75;1.00;;;16.80;94.80;;;;;;5014253;28;20057;-75
2022/09/25 10:28:35;;;;;;;1.55;0.80;;;16.80;94.90;;;;;;5014388;28;20491;-75
2022/09/25 10:31:02;;;;;;;1.80;0.70;;;16.80;94.90;;;;;;5013981;28;20033;-76
2022/09/25 10:33:31;;;;;;;1.85;0.80;;;16.80;95.00;;;;;;5014054;28;20472;-76
2022/09/25 10:35:58;;;;;;;5.03;1.00;;;16.90;95.10;;;;;;5014014;28;20050;-75
2022/09/25 10:38:41;;;;;;;1.75;0.90;;;17.10;95.00;;;;;;5014044;28;20060;-75
2022/09/25 10:41:11;;;;;;;2.47;0.95;;;17.30;95.00;;;;;;5013719;28;20036;-76
2022/09/25 10:43:58;;;;;;;1.33;0.80;;;17.50;94.70;;;;;;5014036;28;20032;-76
2022/09/25 10:52:06;;;;;;;1.27;0.80;;;17.90;94.50;;;;;;5013846;28;20033;-75
2022/09/25 10:54:32;;;;;;;1.20;0.85;;;18.10;94.40;;;;;;5013529;28;20037;-75
2022/09/25 10:56:59;;;;;;;2.33;0.90;;;18.10;94.60;;;;;;5013419;28;20022;-75
2022/09/25 10:59:26;;;;;;;2.53;0.82;;;18.30;94.70;;;;;;5013671;28;20033;-75
2022/09/25 11:01:54;;;;;;;1.55;0.73;;;18.40;94.40;;;;;;5014035;28;20133;-80
2022/09/25 11:04:33;;;;;;;2.72;0.85;;;18.60;94.10;;;;;;5013242;28;20112;-82
2022/09/25 11:07:03;;;;;;;2.55;0.90;;;18.70;94.00;;;;;;5013502;28;20079;-79
2022/09/25 11:09:31;;;;;;;2.30;0.73;;;18.80;93.80;;;;;;5013175;28;20081;-74
2022/09/25 11:12:12;;;;;;;2.45;1.02;;;18.90;93.70;;;;;;4995786;28;20431;-73
2022/09/25 11:14:54;;;;;;;1.42;0.70;;;18.90;93.60;;;;;;5013255;28;20468;-74
2022/09/25 11:17:40;;;;;;;2.97;0.95;;;18.90;93.50;;;;;;5013138;28;20468;-78
2022/09/25 11:20:16;;;;;;;2.97;1.10;;;19.00;93.70;;;;;;5013471;28;20100;-78
2022/09/25 11:23:20;;;;;;;1.63;0.90;;;18.90;93.50;;;;;;5013348;28;20033;-78
2022/09/25 11:25:52;;;;;;;3.55;1.13;;;18.80;93.40;;;;;;5012990;28;20029;-75
2022/09/25 11:28:28;;;;;;;2.35;1.00;;;18.80;93.30;;;;;;5013257;28;20084;-78
2022/09/25 11:31:04;;;;;;;2.38;1.00;;;18.90;93.30;;;;;;5012199;28;20546;-78
2022/09/25 11:33:54;;;;;;;2.10;1.17;;;18.90;93.40;;;;;;5013068;28;20022;-79
2022/09/25 11:36:30;;;;;;;3.72;0.90;;;18.80;93.30;;;;;;5013097;28;20050;-71
2022/09/25 11:42:27;;;;;;;2.15;1.00;;;18.80;93.40;;;;;;5012717;28;20036;-78
2022/09/25 11:45:21;;;;;;;4.45;1.25;;;18.70;93.50;;;;;;5012233;28;20116;-74
2022/09/25 11:47:53;;;;;;;2.65;1.13;;;18.70;93.60;;;;;;5011228;28;20040;-78
2022/09/25 11:50:23;;;;;;;3.03;1.00;;;18.80;93.70;;;;;;5011811;28;20125;-74
2022/09/25 11:52:50;;;;;;;1.88;0.70;;;18.80;93.70;;;;;;5011746;28;20428;-74
2022/09/25 11:55:25;;;;;;;0.90;0.70;;;18.80;93.70;;;;;;5011925;28;20018;-78
2022/09/25 11:58:06;;;;;;;3.25;0.70;;;18.80;93.50;;;;;;5012548;28;20460;-76
2022/09/25 12:00:40;;;;;;;1.13;0.67;;;18.80;93.20;;;;;;5012479;28;20037;-79
2022/09/25 12:03:44;;;;;;;1.80;0.90;;;18.80;93.10;;;;;;5010619;28;20500;-74
2022/09/25 12:06:22;;;;;;;1.23;0.70;;;18.80;93.10;;;;;;5011569;28;20037;-78
2022/09/25 12:08:51;;;;;;;2.60;0.60;;;18.90;92.90;;;;;;5011068;28;20029;-72
2022/09/25 12:11:51;;;;;;;3.03;1.00;;;19.00;92.80;;;;;;4994088;28;20369;-78
2022/09/25 12:14:30;;;;;;;2.65;0.60;;;19.10;92.90;;;;;;4995973;28;20125;-80
2022/09/25 12:17:11;;;;;;;0.88;0.50;;;19.20;92.90;;;;;;5014480;28;20033;-79
2022/09/25 12:19:45;;;;;;;1.65;0.60;;;19.20;92.30;;;;;;5016503;28;20044;-77
2022/09/25 12:22:38;;;;;;;3.20;1.17;;;19.20;92.00;;;;;;5016716;28;20025;-79
2022/09/25 12:25:14;;;;;;;1.42;0.68;;;19.20;91.90;;;;;;5016020;28;20030;-80
2022/09/25 12:27:46;;;;;;;1.33;0.57;;;19.20;91.40;;;;;;5016359;28;20026;-79
2022/09/25 12:30:22;;;;;;;2.97;0.50;;;19.10;91.20;;;;;;5016317;28;20499;-77
2022/09/25 12:33:33;;;;;;;1.95;0.65;;;19.00;91.30;;;;;;5016174;28;20261;-81
2022/09/25 12:36:10;;;;;;;1.85;0.75;;;19.00;91.20;;;;;;4996562;28;20081;-82
2022/09/25 12:39:07;;;;;;;0.73;0.73;;;18.90;91.30;;;;;;5015903;28;20030;-77
2022/09/25 12:41:42;;;;;;;0.82;0.60;;;18.80;91.50;;;;;;5014823;28;20046;-76
2022/09/25 12:44:17;;;;;;;2.08;0.68;;;18.80;91.50;;;;;;4998405;28;20030;-75
2022/09/25 12:47:11;;;;;;;1.33;0.50;;;18.80;91.30;;;;;;5016195;28;20452;-74
2022/09/25 12:49:43;;;;;;;1.52;0.73;;;18.70;91.00;;;;;;5015910;28;20472;-77
2022/09/25 12:52:34;;;;;;;1.77;0.80;;;18.70;91.30;;;;;;5014433;28;20026;-75
2022/09/25 12:55:15;;;;;;;1.23;0.70;;;18.70;91.50;;;;;;5014471;28;20388;-74
2022/09/25 12:57:47;;;;;;;2.83;0.80;;;18.70;91.50;;;;;;5016199;28;20476;-75
2022/09/25 13:00:20;;;;;;;5.85;0.70;;;18.60;91.40;;;;;;5014866;28;20120;-75
2022/09/25 13:03:10;;;;;;;5.22;0.80;;;18.60;91.40;;;;;;5015329;28;20072;-74
2022/09/25 13:05:44;;;;;;;0.95;0.60;;;18.60;91.40;;;;;;5015742;28;20030;-75
2022/09/25 13:08:19;;;;;;;2.50;0.80;;;18.50;91.40;;;;;;5015690;28;20037;-74
2022/09/25 13:11:05;;;;;;;1.70;0.60;;;18.50;91.50;;;;;;5015528;28;20112;-75
2022/09/25 13:13:38;;;;;;;1.92;0.90;;;18.50;91.70;;;;;;5016012;28;20442;-74
2022/09/25 13:16:04;;;;;;;1.75;0.88;;;18.50;91.70;;;;;;5014703;28;20037;-74
2022/09/25 13:18:34;;;;;;;2.00;0.80;;;18.50;91.60;;;;;;5012773;28;20017;-76
2022/09/25 13:21:35;;;;;;;0.95;0.80;;;18.50;91.60;;;;;;5012624;28;20241;-74
2022/09/25 13:24:08;;;;;;;2.10;1.35;;;18.50;91.60;;;;;;5013964;28;20022;-76
2022/09/25 13:26:47;;;;;;;2.95;1.35;;;18.50;91.60;;;;;;5012342;28;20029;-79
2022/09/25 13:29:16;;;;;;;2.38;1.10;;;18.50;91.60;;;;;;5011670;28;20050;-79
2022/09/25 13:31:43;;;;;;;3.60;1.05;;;18.50;91.60;;;;;;5012139;28;20036;-81
2022/09/25 13:34:12;;;;;;;2.72;0.90;;;18.50;91.70;;;;;;5011678;28;20053;-81
2022/09/25 13:36:54;;;;;;;1.45;0.70;;;18.50;91.70;;;;;;5012881;28;20065;-79
2022/09/25 13:42:41;;;;;;;1.58;0.82;;;18.50;91.70;;;;;;4993677;28;20400;-73
2022/09/25 13:45:25;;;;;;;2.60;0.70;;;18.40;91.70;;;;;;5010426;28;20104;-75
2022/09/25 13:48:26;;;;;;;4.65;1.10;;;18.50;91.70;;;;;;5011851;28;20030;-74
2022/09/25 13:51:21;;;;;;;1.48;0.90;;;18.40;91.70;;;;;;4999786;28;20038;-74
2022/09/25 13:54:02;;;;;;;2.10;0.90;;;18.50;92.10;;;;;;5012498;28;20030;-78
2022/09/25 13:56:40;;;;;;;2.88;1.02;;;18.50;91.80;;;;;;4994255;28;20119;-76
2022/09/25 13:59:08;;;;;;;5.53;1.10;;;18.40;91.80;;;;;;5014030;28;20384;-77
2022/09/25 14:01:40;;;;;;;3.58;0.85;;;18.40;91.80;;;;;;5014217;28;20032;-78
2022/09/25 14:04:10;;;;;;;1.73;0.80;;;18.50;91.90;;;;;;5015105;28;20026;-78
2022/09/25 14:06:38;;;;;;;1.75;1.00;;;18.50;91.80;;;;;;5014738;28;20265;-78
2022/09/25 14:09:11;;;;;;;2.63;1.00;;;18.40;91.90;;;;;;5014546;28;20018;-79
2022/09/25 14:11:37;;;;;;;3.45;0.80;;;18.50;91.80;;;;;;5014186;28;20566;-78
2022/09/25 14:14:18;;;;;;;3.92;0.90;;;18.50;91.80;;;;;;5014569;28;20038;-78
2022/09/25 14:16:49;;;;;;;1.00;0.70;;;18.40;91.70;;;;;;4994640;28;20062;-76
2022/09/25 14:19:40;;;;;;;2.15;0.77;;;18.50;91.80;;;;;;4994381;28;20476;-77
2022/09/25 14:22:13;;;;;;;4.43;1.00;;;18.50;91.80;;;;;;4992143;28;20046;-73
2022/09/25 14:24:44;;;;;;;3.97;0.88;;;18.40;91.70;;;;;;4994857;28;20433;-74
2022/09/25 14:27:25;;;;;;;3.90;1.02;;;18.50;91.80;;;;;;4994657;28;20105;-73
2022/09/25 14:29:51;;;;;;;1.80;0.80;;;18.50;91.80;;;;;;4994287;28;20048;-73
2022/09/25 14:32:46;;;;;;;1.52;0.90;;;18.50;91.70;;;;;;4994655;28;20022;-72
2022/09/25 14:35:44;;;;;;;2.92;0.70;;;18.50;91.70;;;;;;4994602;28;20033;-72
2022/09/25 14:38:42;;;;;;;5.10;0.80;;;18.40;91.60;;;;;;4982145;28;20050;-73
2022/09/25 14:41:24;;;;;;;2.33;0.90;;;18.40;91.80;;;;;;4986006;28;20504;-71
2022/09/25 14:44:17;;;;;;;;;;;18.40;91.80;;;;;;4994956;28;20081;-72
2022/09/25 14:46:46;;;;;;;2.35;0.75;;;18.40;91.70;;;;;;4992148;28;20000;-72
2022/09/25 14:49:37;;;;;;;1.10;0.80;;;18.40;91.70;;;;;;4994394;28;20492;-72
2022/09/25 14:52:07;;;;;;;1.33;0.80;;;18.40;91.70;;;;;;4992578;28;20499;-72
2022/09/25 14:54:38;;;;;;;1.95;0.93;;;18.40;92.00;;;;;;4991205;28;20034;-71
2022/09/25 14:57:05;;;;;;;3.33;1.08;;;18.40;91.80;;;;;;4990691;28;20097;-73
2022/09/25 14:59:32;;;;;;;4.43;1.10;;;18.40;91.80;;;;;;4992825;28;20029;-76
2022/09/25 15:02:01;;;;;;;2.28;0.93;;;18.40;91.80;;;;;;4993209;28;20117;-73
2022/09/25 15:04:33;;;;;;;2.47;0.98;;;18.40;92.00;;;;;;4992200;28;20030;-73
2022/09/25 15:07:01;;;;;;;;;;;18.40;92.10;;;;;;4991559;28;20124;-75
2022/09/25 15:09:46;;;;;;;1.67;0.80;;;18.40;92.10;;;;;;4991451;28;19913;-72
2022/09/25 15:12:28;;;;;;;3.13;0.80;;;18.40;92.00;;;;;;4993693;28;20042;-73
2022/09/25 15:15:11;;;;;;;6.25;0.90;;;18.40;92.10;;;;;;4992935;28;20027;-74
2022/09/25 15:17:46;;;;;;;1.50;0.90;;;18.40;92.20;;;;;;4993430;28;20027;-71
2022/09/25 15:20:16;;;;;;;1.23;0.80;;;18.40;92.20;;;;;;4993690;28;20504;-72
2022/09/25 15:22:54;;;;;;;5.93;1.10;;;18.40;92.30;;;;;;4993886;28;20018;-73
2022/09/25 15:25:46;;;;;;;4.53;1.10;;;18.40;92.40;;;;;;4993983;28;20057;-74
2022/09/25 15:28:16;;;;;;;3.43;1.47;;;18.40;92.40;;;;;;4993689;28;20033;-72
2022/09/25 15:30:45;;;;;;;6.47;1.20;;;18.40;92.40;;;;;;4993890;28;20634;-70
2022/09/25 15:33:29;;;;;;;4.22;1.20;;;18.40;92.40;;;;;;4993297;28;20065;-74
2022/09/25 15:35:56;;;;;;;8.18;1.23;;;18.40;92.60;;;;;;4993480;28;20508;-73
2022/09/25 15:38:55;;;;;;;11.68;1.55;;;18.40;92.50;;;;;;4993608;28;20357;-72
2022/09/25 15:41:22;;;;;;;4.88;1.38;;;18.40;92.50;;;;;;4986264;28;20050;-73
2022/09/25 15:43:50;;;;;;;7.15;1.30;;;18.40;92.50;;;;;;4993588;28;20034;-74
2022/09/25 15:46:37;;;;;;;4.50;1.30;;;18.40;92.50;;;;;;4993209;28;20054;-74
2022/09/25 15:49:03;;;;;;;1.20;1.00;;;18.40;92.60;;;;;;4993272;28;20117;-74
2022/09/25 15:51:32;;;;;;;3.33;1.45;;;18.40;92.60;;;;;;4993375;28;20019;-74
2022/09/25 15:54:01;;;;;;;5.20;1.40;;;18.40;92.60;;;;;;4993570;28;20029;-73
2022/09/25 15:56:50;;;;;;;23.30;3.28;;;18.40;92.60;;;;;;4993717;28;20030;-73
2022/09/25 15:59:35;;;;;;;12.93;2.67;;;18.40;92.50;;;;;;4993398;28;20042;-74
2022/09/25 16:05:07;;;;;;;10.55;2.78;;;18.40;92.70;;;;;;4994001;28;20037;-74
2022/09/25 16:07:37;;;;;;;3.58;2.03;;;18.40;92.60;;;;;;4993405;28;20026;-74
2022/09/25 16:10:09;;;;;;;3.47;1.58;;;18.40;92.60;;;;;;4993344;28;20023;-74
2022/09/25 16:12:41;;;;;;;2.05;1.40;;;18.40;92.70;;;;;;4993400;28;20018;-74
2022/09/25 16:15:25;;;;;;;;;;;18.40;92.70;;;;;;4993820;28;20112;-74
2022/09/25 16:17:59;;;;;;;3.95;1.67;;;18.40;92.70;;;;;;4993297;28;19944;-73
2022/09/25 16:20:40;;;;;;;2.38;1.60;;;18.40;92.60;;;;;;4992979;28;20503;-74
2022/09/25 16:23:27;;;;;;;2.40;1.70;;;18.40;92.70;;;;;;4993249;28;20026;-73
2022/09/25 16:25:53;;;;;;;5.50;1.80;;;18.30;92.70;;;;;;4993269;28;20539;-73
2022/09/25 16:28:31;;;;;;;2.67;1.90;;;18.30;92.80;;;;;;4993249;28;20056;-74
2022/09/25 16:31:09;;;;;;;4.53;1.88;;;18.30;92.90;;;;;;4993003;28;20022;-71
2022/09/25 16:33:47;;;;;;;3.17;1.90;;;18.30;92.90;;;;;;4993077;28;20027;-73
2022/09/25 16:36:17;;;;;;;3.88;1.98;;;18.30;92.90;;;;;;4991756;28;20042;-73
2022/09/25 16:39:07;;;;;;;3.67;1.90;;;18.30;92.90;;;;;;4992868;28;20019;-72
2022/09/25 16:41:34;;;;;;;3.90;2.03;;;18.30;92.90;;;;;;4992181;28;20510;-73
2022/09/25 16:44:13;;;;;;;5.80;2.38;;;18.30;93.00;;;;;;4990335;28;20066;-73
2022/09/25 16:46:51;;;;;;;3.00;1.63;;;18.30;93.00;;;;;;4989741;28;20472;-71
2022/09/25 16:49:20;;;;;;;4.47;1.70;;;18.30;93.00;;;;;;4991882;28;20469;-73
2022/09/25 16:51:48;;;;;;;5.72;1.70;;;18.30;93.00;;;;;;4992910;28;20030;-71
2022/09/25 16:54:16;;;;;;;2.53;1.75;;;18.20;93.10;;;;;;4992868;28;20396;-71
2022/09/25 16:56:44;;;;;;;2.88;1.65;;;18.20;93.10;;;;;;4992649;28;20030;-73
2022/09/25 16:59:21;;;;;;;2.08;1.40;;;18.20;93.20;;;;;;4992571;28;20455;-73
2022/09/25 17:01:50;;;;;;;3.20;1.40;;;18.20;93.20;;;;;;4992577;28;20084;-73
2022/09/25 17:04:20;;;;;;;3.33;1.65;;;18.20;93.20;;;;;;4994799;28;20030;-71
2022/09/25 17:06:46;;;;;;;3.15;1.40;;;18.20;93.20;;;;;;4996392;28;20038;-73
2022/09/25 17:09:13;;;;;;;5.20;1.50;;;18.10;93.20;;;;;;4996206;28;20531;-74
2022/09/25 17:11:43;;;;;;;3.10;1.58;;;18.20;93.20;;;;;;4996044;28;20026;-73
2022/09/25 17:14:20;;;;;;;6.93;1.90;;;18.20;93.50;;;;;;4995960;28;20029;-75
2022/09/25 17:16:45;;;;;;;2.95;1.80;;;18.10;93.30;;;;;;4978220;28;20472;-74
2022/09/25 17:19:18;;;;;;;4.13;2.00;;;18.10;93.30;;;;;;4995190;28;20093;-74
2022/09/25 17:21:50;;;;;;;;;;;18.10;93.30;;;;;;4995954;28;20049;-74
2022/09/25 17:24:16;;;;;;;4.22;2.00;;;18.10;93.30;;;;;;4995902;28;19945;-74
2022/09/25 17:26:43;;;;;;;4.18;1.48;;;18.10;93.30;;;;;;4995269;28;20022;-75
2022/09/25 17:29:09;;;;;;;3.95;1.88;;;18.00;93.50;;;;;;4995571;28;20085;-74
2022/09/25 17:31:35;;;;;;;8.35;1.95;;;18.00;93.50;;;;;;4995431;28;20412;-73
2022/09/25 17:34:06;;;;;;;6.68;1.80;;;18.00;93.60;;;;;;4995535;28;20092;-74
2022/09/25 17:36:32;;;;;;;3.97;1.83;;;18.00;93.60;;;;;;4995675;28;20059;-74
2022/09/25 17:38:58;;;;;;;3.72;1.95;;;18.00;93.50;;;;;;4995623;28;20034;-73
2022/09/25 17:41:33;;;;;;;4.15;2.03;;;18.00;93.50;;;;;;4995400;28;20036;-74
2022/09/25 17:43:59;;;;;;;4.95;1.88;;;18.00;93.50;;;;;;4995310;28;20034;-74
2022/09/25 17:46:25;;;;;;;8.13;1.80;;;17.90;93.50;;;;;;4992497;28;20042;-74
2022/09/25 17:48:51;;;;;;;6.32;1.95;;;17.90;93.40;;;;;;4992870;28;20022;-74
2022/09/25 17:51:21;;;;;;;2.88;1.70;;;18.00;93.40;;;;;;4993293;28;20514;-73
2022/09/25 17:53:48;;;;;;;7.10;1.98;;;17.90;93.40;;;;;;4995104;28;20031;-73
2022/09/25 17:56:14;;;;;;;6.82;1.70;;;18.00;93.50;;;;;;4995319;28;20030;-74
2022/09/25 17:58:44;;;;;;;3.35;1.50;;;18.00;93.50;;;;;;4995277;28;20464;-74
2022/09/25 18:01:23;;;;;;;4.20;1.95;;;18.00;93.50;;;;;;4994771;28;20037;-71
2022/09/25 18:03:53;;;;;;;5.88;2.00;;;17.90;93.50;;;;;;4995110;28;20067;-74
2022/09/25 18:06:19;;;;;;;4.70;1.90;;;17.90;93.50;;;;;;4994086;28;20030;-72
2022/09/25 18:08:46;;;;;;;4.45;1.85;;;17.90;93.50;;;;;;4994018;28;20030;-74
2022/09/25 18:11:13;;;;;;;3.33;1.33;;;17.90;93.70;;;;;;4994970;28;20088;-70
2022/09/25 18:13:40;;;;;;;2.00;1.27;;;17.80;93.40;;;;;;4994547;28;20038;-71
2022/09/25 18:16:12;;;;;;;2.97;1.50;;;17.90;93.30;;;;;;4994732;28;20023;-73
2022/09/25 18:24:06;;;;;;;2.33;1.20;;;17.80;93.20;;;;;;4995005;28;20109;-73
2022/09/25 18:26:32;;;;;;;2.97;1.27;;;17.80;93.20;;;;;;4994690;28;20413;-73
2022/09/25 18:28:58;;;;;;;3.28;1.70;;;17.80;93.20;;;;;;4994568;28;20648;-74
2022/09/25 18:31:24;;;;;;;4.93;1.85;;;17.70;93.20;;;;;;4994488;28;20022;-73
2022/09/25 18:33:52;;;;;;;4.65;1.73;;;17.80;93.30;;;;;;4994380;28;20373;-71
2022/09/25 18:36:18;;;;;;;5.10;1.80;;;17.80;93.30;;;;;;4994554;28;20137;-73
2022/09/25 18:38:44;;;;;;;2.53;1.80;;;17.80;93.40;;;;;;4994292;28;20033;-71
2022/09/25 18:41:12;;;;;;;4.45;1.75;;;17.80;93.40;;;;;;4994065;28;20420;-73
2022/09/25 18:43:38;;;;;;;3.08;2.00;;;17.80;93.40;;;;;;4994078;28;20022;-73
2022/09/25 18:46:06;;;;;;;5.35;1.83;;;17.80;93.50;;;;;;4993988;28;20064;-70
2022/09/25 18:48:34;;;;;;;5.32;1.80;;;17.70;93.50;;;;;;4994483;28;20018;-72
2022/09/25 18:51:00;;;;;;;6.18;2.00;;;17.70;93.50;;;;;;4994275;28;20034;-72
2022/09/25 18:53:26;;;;;;;3.30;1.85;;;17.70;93.40;;;;;;4993981;28;20038;-72
2022/09/25 18:55:57;;;;;;;4.00;1.80;;;17.80;93.50;;;;;;4993757;28;20568;-73
2022/09/25 18:58:23;;;;;;;4.63;1.90;;;17.80;93.40;;;;;;4993911;28;20073;-71
2022/09/25 19:00:50;;;;;;;4.07;1.60;;;17.70;93.40;;;;;;4993705;28;20056;-71
2022/09/25 19:03:16;;;;;;;7.00;2.00;;;17.70;93.30;;;;;;4993896;28;20029;-72
2022/09/25 19:05:42;;;;;;;7.63;1.50;;;17.70;93.20;;;;;;4993842;28;20022;-72
2022/09/25 19:08:10;;;;;;;2.35;1.50;;;17.70;93.10;;;;;;4993765;28;20018;-72
2022/09/25 19:10:36;;;;;;;5.53;1.40;;;17.70;93.10;;;;;;4993597;28;20080;-73
2022/09/25 19:13:03;;;;;;;6.75;1.50;;;17.70;93.10;;;;;;4993913;28;20033;-72
2022/09/25 19:15:30;;;;;;;6.15;1.63;;;17.70;93.10;;;;;;4993702;28;20026;-72
2022/09/25 19:17:56;;;;;;;2.35;1.25;;;17.70;93.10;;;;;;4993743;28;20076;-70
2022/09/25 19:20:23;;;;;;;3.75;1.42;;;17.70;93.00;;;;;;4993779;28;20076;-74
2022/09/25 19:22:50;;;;;;;4.13;1.67;;;17.70;93.10;;;;;;4993725;28;20061;-72
2022/09/25 19:25:20;;;;;;;1.85;1.00;;;17.70;93.10;;;;;;4993213;28;20062;-74
2022/09/25 19:27:46;;;;;;;4.15;1.20;;;17.70;93.00;;;;;;4993106;28;20030;-73
2022/09/25 19:30:12;;;;;;;1.92;0.90;;;17.70;93.00;;;;;;4993552;28;20022;-70
2022/09/25 19:32:39;;;;;;;1.65;0.95;;;17.70;92.90;;;;;;4993570;28;20105;-73
2022/09/25 19:35:05;;;;;;;2.08;1.02;;;17.70;92.90;;;;;;4993676;28;20018;-72
2022/09/25 19:37:36;;;;;;;2.60;1.05;;;17.60;92.80;;;;;;4993044;28;20424;-73
2022/09/25 19:42:48;;;;;;;3.28;1.20;;;17.60;92.90;;;;;;4993830;28;20104;-71
2022/09/25 19:45:15;;;;;;;4.03;1.10;;;17.60;92.90;;;;;;4993305;28;20054;-73
2022/09/25 19:47:41;;;;;;;3.42;1.20;;;17.60;92.90;;;;;;4993222;28;20026;-73
2022/09/25 19:50:09;;;;;;;2.88;1.08;;;17.60;92.90;;;;;;4993523;28;20034;-70
2022/09/25 19:52:36;;;;;;;6.15;1.63;;;17.60;93.00;;;;;;4993318;28;20042;-69
2022/09/25 19:55:03;;;;;;;3.47;1.30;;;17.60;92.90;;;;;;4975798;28;20034;-69
2022/09/25 19:57:29;;;;;;;2.83;1.15;;;17.60;92.90;;;;;;4993458;28;20093;-69
2022/09/25 19:59:55;;;;;;;5.07;1.20;;;17.60;92.90;;;;;;4993465;28;20114;-69
2022/09/25 20:02:21;;;;;;;3.45;1.10;;;17.60;92.90;;;;;;4975676;28;20061;-72
2022/09/25 20:04:47;;;;;;;3.78;1.17;;;17.60;92.90;;;;;;4993199;28;20370;-70
2022/09/25 20:07:15;;;;;;;2.35;1.27;;;17.60;92.90;;;;;;4975691;28;20076;-71
2022/09/25 20:09:43;;;;;;;4.57;1.58;;;17.50;92.80;;;;;;4992723;28;20117;-70
2022/09/25 20:12:10;;;;;;;7.22;1.52;;;17.60;92.80;;;;;;4993348;28;20026;-71
2022/09/25 20:14:36;;;;;;;4.35;1.30;;;17.50;92.80;;;;;;4992888;28;20026;-72
2022/09/25 20:17:03;;;;;;;2.95;1.48;;;17.50;93.10;;;;;;4992783;28;20026;-71
2022/09/25 20:19:29;;;;;;;4.55;1.80;;;17.50;92.80;;;;;;4993019;28;20026;-72
2022/09/25 20:21:55;;;;;;;2.60;1.40;;;17.50;92.90;;;;;;4993126;28;20049;-72
2022/09/25 20:24:21;;;;;;;4.70;1.20;;;17.50;92.90;;;;;;4992894;28;20533;-70
2022/09/25 20:26:47;;;;;;;5.95;1.30;;;17.50;92.90;;;;;;4992852;28;20026;-70
2022/09/25 20:29:14;;;;;;;2.70;1.45;;;17.50;93.00;;;;;;4993079;28;20500;-70
2022/09/25 20:31:43;;;;;;;5.03;1.33;;;17.50;93.00;;;;;;4992821;28;20019;-70
2022/09/25 20:34:18;;;;;;;2.92;1.50;;;17.50;93.30;;;;;;4992867;28;20113;-70
2022/09/25 20:36:45;;;;;;;6.22;1.50;;;17.50;93.00;;;;;;4992553;28;20047;-72
2022/09/25 20:39:11;;;;;;;2.35;1.50;;;17.50;93.00;;;;;;4994997;28;20030;-70
2022/09/25 20:41:38;;;;;;;4.80;1.55;;;17.50;93.00;;;;;;4996561;28;20038;-71
2022/09/25 20:44:05;;;;;;;5.60;1.30;;;17.50;93.10;;;;;;4996592;28;20049;-70
2022/09/25 20:46:32;;;;;;;6.75;1.50;;;17.50;93.00;;;;;;4996689;28;20077;-71
2022/09/25 20:48:59;;;;;;;3.60;1.45;;;17.50;93.00;;;;;;4996615;28;20026;-72
2022/09/25 20:51:33;;;;;;;3.33;1.10;;;17.50;93.10;;;;;;4996471;28;20023;-72
2022/09/25 20:54:06;;;;;;;6.63;1.30;;;17.50;93.10;;;;;;4996155;28;20034;-73
2022/09/25 20:56:32;;;;;;;;;;;17.50;93.20;;;;;;4996718;28;20420;-70
2022/09/25 20:59:00;;;;;;;1.85;1.10;;;17.50;93.20;;;;;;4996488;28;19906;-71
2022/09/25 21:01:30;;;;;;;6.75;1.42;;;17.50;93.20;;;;;;4996232;28;20468;-70
2022/09/25 21:03:59;;;;;;;5.45;1.50;;;17.40;93.10;;;;;;4996134;28;20033;-71
2022/09/25 21:06:31;;;;;;;3.67;1.38;;;17.40;93.10;;;;;;4996591;28;20510;-71
2022/09/25 21:08:59;;;;;;;2.40;1.40;;;17.40;93.10;;;;;;4995979;28;20146;-71
2022/09/25 21:11:28;;;;;;;1.77;1.15;;;17.40;93.10;;;;;;4996201;28;20061;-71
2022/09/25 21:13:57;;;;;;;4.13;1.23;;;17.40;93.00;;;;;;4978599;28;20374;-71
2022/09/25 21:16:26;;;;;;;4.30;1.42;;;17.40;93.00;;;;;;4995548;28;20022;-71
2022/09/25 21:18:54;;;;;;;2.08;1.35;;;17.40;93.10;;;;;;4995753;28;20034;-71
2022/09/25 21:21:20;;;;;;;4.68;1.55;;;17.40;93.20;;;;;;4995887;28;20113;-74